Time;durP1;ratioP1;P1;durP2;ratioP2;P2;SDS_P1;SDS_P2;PMS_P1;PMS_P2;Temp;Humidity;BMP_temperature;BMP_pressure;BME280_temperature;BME280_humidity;BME280_pressure;Samples;Min_cycle;Max_cycle;Signal;HPM_P1;HPM_P2
2022/04/20 00:01:24;;;;;;;7.25;4.35;;;4.20;99.90;;;;;;5028433;28;20041;-35
2022/04/20 00:03:50;;;;;;;7.70;4.10;;;4.20;99.90;;;;;;5028423;28;20049;-35
2022/04/20 00:06:16;;;;;;;10.70;4.53;;;4.20;99.90;;;;;;5028921;28;20060;-35
2022/04/20 00:08:42;;;;;;;8.57;4.20;;;4.30;99.90;;;;;;5028933;28;20123;-35
2022/04/20 00:11:08;;;;;;;8.05;3.88;;;4.30;99.90;;;;;;5028522;28;20447;-35
2022/04/20 00:13:37;;;;;;;8.63;5.03;;;4.30;99.90;;;;;;5028671;28;20049;-35
2022/04/20 00:16:02;;;;;;;5.63;4.30;;;4.10;99.90;;;;;;5028152;28;20372;-35
2022/04/20 00:18:28;;;;;;;11.05;4.68;;;4.10;99.90;;;;;;5028119;28;20053;-35
2022/04/20 00:20:54;;;;;;;8.35;4.80;;;4.20;99.90;;;;;;5027890;28;20839;-36
2022/04/20 00:23:20;;;;;;;9.15;5.05;;;4.10;99.90;;;;;;5028055;28;20048;-35
2022/04/20 00:25:45;;;;;;;7.30;4.20;;;4.20;99.90;;;;;;5027953;28;20041;-35
2022/04/20 00:28:11;;;;;;;6.47;4.18;;;4.00;99.90;;;;;;5027887;28;20616;-35
2022/04/20 00:30:37;;;;;;;8.43;4.22;;;3.90;99.90;;;;;;5033078;28;20049;-35
2022/04/20 00:33:02;;;;;;;7.78;4.47;;;3.80;99.90;;;;;;5048016;28;20049;-35
2022/04/20 00:35:28;;;;;;;7.80;5.20;;;4.00;99.90;;;;;;5047997;28;20480;-35
2022/04/20 00:37:54;;;;;;;9.20;5.55;;;3.90;99.90;;;;;;5048073;28;20047;-35
2022/04/20 00:40:20;;;;;;;8.57;4.65;;;3.80;99.90;;;;;;5038586;28;20042;-35
2022/04/20 00:42:47;;;;;;;10.15;5.32;;;3.80;99.90;;;;;;5031600;28;20377;-35
2022/04/20 00:45:14;;;;;;;13.65;5.43;;;3.80;99.90;;;;;;5031155;28;20269;-35
2022/04/20 00:47:44;;;;;;;7.45;4.55;;;4.60;99.90;;;;;;5031592;28;20129;-35
2022/04/20 00:50:11;;;;;;;8.30;5.13;;;3.80;99.90;;;;;;5031113;28;20127;-36
2022/04/20 00:52:37;;;;;;;8.88;4.85;;;3.90;99.90;;;;;;5031387;28;20042;-35
2022/04/20 00:55:04;;;;;;;9.38;5.32;;;3.80;99.90;;;;;;5031339;28;20566;-40
2022/04/20 00:57:30;;;;;;;8.88;4.50;;;3.60;99.90;;;;;;5031407;28;20124;-35
2022/04/20 00:59:57;;;;;;;10.40;4.60;;;3.80;99.90;;;;;;5031309;28;20444;-35
2022/04/20 01:02:23;;;;;;;7.38;4.38;;;3.80;99.90;;;;;;5031476;28;20045;-36
2022/04/20 01:04:49;;;;;;;9.00;5.15;;;3.80;99.90;;;;;;5031022;28;20512;-35
2022/04/20 01:07:16;;;;;;;7.82;4.78;;;3.60;99.90;;;;;;5031064;28;20571;-35
2022/04/20 01:09:43;;;;;;;7.95;5.22;;;3.70;99.90;;;;;;5029920;28;20060;-35
2022/04/20 01:12:10;;;;;;;9.23;4.93;;;3.50;99.90;;;;;;5031318;28;20060;-35
2022/04/20 01:14:37;;;;;;;9.18;5.38;;;;;;;;;;5031338;28;20033;-36
2022/04/20 01:17:03;;;;;;;9.05;4.82;;;;;;;;;;5030990;28;20046;-35
2022/04/20 01:19:38;;;;;;;10.20;5.60;;;;;;;;;;5031204;28;20866;-35
2022/04/20 01:22:04;;;;;;;7.88;5.20;;;;;;;;;;5031283;28;20124;-35
2022/04/20 01:24:31;;;;;;;10.93;5.35;;;;;;;;;;5031237;28;20559;-35
2022/04/20 01:26:57;;;;;;;9.75;5.50;;;;;;;;;;5031272;28;20057;-35
2022/04/20 01:29:25;;;;;;;7.97;4.80;;;;;;;;;;5030935;28;20060;-35
2022/04/20 01:31:51;;;;;;;9.60;5.00;;;3.50;99.90;;;;;;5046263;28;20041;-35
2022/04/20 01:34:17;;;;;;;11.32;4.93;;;3.60;99.90;;;;;;5050385;28;20047;-35
2022/04/20 01:36:42;;;;;;;9.50;5.60;;;3.60;99.90;;;;;;5050482;28;20080;-35
2022/04/20 01:39:08;;;;;;;7.35;4.80;;;3.60;99.90;;;;;;5050355;28;20033;-35
2022/04/20 01:41:33;;;;;;;7.80;4.72;;;3.40;99.90;;;;;;5032932;28;20048;-35
2022/04/20 01:43:59;;;;;;;11.20;4.63;;;3.70;99.90;;;;;;5030995;28;20497;-35
2022/04/20 01:46:25;;;;;;;8.80;5.20;;;3.70;99.90;;;;;;5029085;28;20049;-35
2022/04/20 01:48:51;;;;;;;14.40;6.57;;;3.70;99.90;;;;;;5030683;28;20049;-35
2022/04/20 01:54:00;;;;;;;9.90;5.07;;;3.80;99.90;;;;;;5030602;28;20107;-35
2022/04/20 01:56:26;;;;;;;7.50;4.95;;;3.90;99.90;;;;;;5030072;28;20458;-35
2022/04/20 01:58:52;;;;;;;10.20;5.57;;;3.90;99.90;;;;;;5030233;28;20546;-35
2022/04/20 02:04:02;;;;;;;11.18;4.82;;;3.90;99.90;;;;;;5030169;28;20055;-35
2022/04/20 02:06:28;;;;;;;9.70;4.70;;;4.00;99.90;;;;;;5029743;28;20037;-35
2022/04/20 02:08:53;;;;;;;7.22;4.47;;;4.00;99.90;;;;;;5030233;28;20057;-35
2022/04/20 02:11:19;;;;;;;7.85;4.85;;;4.10;99.90;;;;;;5030033;28;20053;-35
2022/04/20 02:13:45;;;;;;;9.20;4.60;;;;;;;;;;5030180;28;20061;-35
2022/04/20 02:16:11;;;;;;;8.85;5.68;;;;;;;;;;5030029;28;20722;-35
2022/04/20 02:18:37;;;;;;;12.15;5.55;;;;;;;;;;5030190;28;20483;-35
2022/04/20 02:21:03;;;;;;;9.70;5.13;;;3.50;99.90;;;;;;5030372;28;20037;-35
2022/04/20 02:23:29;;;;;;;8.55;5.13;;;3.80;99.90;;;;;;5029912;28;20373;-35
2022/04/20 02:25:55;;;;;;;10.05;5.03;;;3.60;99.90;;;;;;5030079;28;20049;-35
2022/04/20 02:28:20;;;;;;;8.07;4.82;;;3.50;99.90;;;;;;5029515;28;20166;-35
2022/04/20 02:30:46;;;;;;;7.72;4.63;;;3.40;99.90;;;;;;5035837;28;20488;-35
2022/04/20 02:33:12;;;;;;;10.02;5.15;;;3.40;99.90;;;;;;5049523;28;20075;-35
2022/04/20 02:35:40;;;;;;;8.48;4.93;;;3.30;99.90;;;;;;5049339;28;20534;-35
2022/04/20 02:38:10;;;;;;;9.73;5.97;;;3.30;99.90;;;;;;5049707;28;20791;-35
2022/04/20 02:40:37;;;;;;;9.60;6.05;;;3.00;99.90;;;;;;5043116;28;20128;-35
2022/04/20 02:43:03;;;;;;;10.05;5.40;;;3.10;99.90;;;;;;5029862;28;20559;-35
2022/04/20 02:45:29;;;;;;;8.50;5.78;;;2.90;99.90;;;;;;5029366;28;20133;-35
2022/04/20 02:47:55;;;;;;;10.38;5.47;;;3.00;99.90;;;;;;5029605;28;20037;-35
2022/04/20 02:50:20;;;;;;;14.45;5.80;;;2.90;99.90;;;;;;5029245;28;20037;-35
2022/04/20 02:52:46;;;;;;;9.18;5.50;;;2.60;99.90;;;;;;5029511;28;20041;-35
2022/04/20 02:55:12;;;;;;;10.77;6.68;;;2.70;99.90;;;;;;5029527;28;20060;-35
2022/04/20 02:57:37;;;;;;;9.60;5.25;;;2.60;99.90;;;;;;5029257;28;20049;-35
2022/04/20 03:00:04;;;;;;;10.07;5.13;;;2.60;99.90;;;;;;5029202;28;20553;-35
2022/04/20 03:02:31;;;;;;;10.10;5.38;;;2.30;99.90;;;;;;5028340;28;20476;-39
2022/04/20 03:04:57;;;;;;;10.57;5.65;;;2.40;99.90;;;;;;5029183;28;20045;-35
2022/04/20 03:07:23;;;;;;;11.10;5.47;;;2.40;99.90;;;;;;5028974;28;20052;-35
2022/04/20 03:09:48;;;;;;;8.77;4.82;;;2.40;99.90;;;;;;5029376;28;20045;-35
2022/04/20 03:12:14;;;;;;;8.38;4.75;;;2.20;99.90;;;;;;5028923;28;20049;-35
2022/04/20 03:14:40;;;;;;;8.65;5.35;;;2.20;99.90;;;;;;5027479;28;20043;-35
2022/04/20 03:17:06;;;;;;;10.25;5.43;;;2.30;99.90;;;;;;5028870;28;20081;-35
2022/04/20 03:19:32;;;;;;;10.70;5.55;;;2.30;99.90;;;;;;5028853;28;20079;-35
2022/04/20 03:21:58;;;;;;;9.75;4.97;;;2.20;99.90;;;;;;5028925;28;20041;-35
2022/04/20 03:24:23;;;;;;;8.65;5.35;;;2.10;99.90;;;;;;5028756;28;20067;-35
2022/04/20 03:26:49;;;;;;;10.32;5.60;;;2.10;99.90;;;;;;5028954;28;20626;-35
2022/04/20 03:29:15;;;;;;;9.95;5.45;;;2.10;99.90;;;;;;5029167;28;20045;-35
2022/04/20 03:31:41;;;;;;;10.73;5.70;;;2.10;99.90;;;;;;5042183;28;20041;-35
2022/04/20 03:34:07;;;;;;;9.20;5.22;;;2.10;99.90;;;;;;5048987;28;20045;-35
2022/04/20 03:36:34;;;;;;;7.95;4.80;;;2.10;99.90;;;;;;5048624;28;20059;-35
2022/04/20 03:39:00;;;;;;;7.85;5.13;;;2.10;99.90;;;;;;5048967;28;20554;-35
2022/04/20 03:41:26;;;;;;;12.15;5.53;;;2.10;99.90;;;;;;5038986;28;20415;-35
2022/04/20 03:43:52;;;;;;;8.27;4.57;;;2.10;99.90;;;;;;5028990;28;20136;-35
2022/04/20 03:46:17;;;;;;;8.15;5.32;;;1.80;99.90;;;;;;5028639;28;20054;-35
2022/04/20 03:48:44;;;;;;;8.35;4.65;;;2.10;99.90;;;;;;5028505;28;20048;-35
2022/04/20 03:51:10;;;;;;;9.18;5.38;;;2.00;99.90;;;;;;5028779;28;20128;-35
2022/04/20 03:53:36;;;;;;;8.63;5.03;;;2.00;99.90;;;;;;5028531;28;20556;-35
2022/04/20 03:56:01;;;;;;;9.15;5.53;;;1.90;99.90;;;;;;5028582;28;20060;-35
2022/04/20 03:58:27;;;;;;;8.23;5.32;;;2.10;99.90;;;;;;5028567;28;20091;-35
2022/04/20 04:00:53;;;;;;;9.20;5.45;;;1.90;99.90;;;;;;5028545;28;20061;-35
2022/04/20 04:03:19;;;;;;;11.82;5.50;;;2.00;99.90;;;;;;5028419;28;20045;-35
2022/04/20 04:05:44;;;;;;;9.05;4.63;;;1.90;99.90;;;;;;5028247;28;20104;-35
2022/04/20 04:08:10;;;;;;;10.02;5.00;;;1.90;99.90;;;;;;5028410;28;20518;-35
2022/04/20 04:10:36;;;;;;;10.60;5.43;;;1.90;99.90;;;;;;5028132;28;20052;-35
2022/04/20 04:13:02;;;;;;;10.20;5.20;;;1.90;99.90;;;;;;5028690;28;20041;-37
2022/04/20 04:15:28;;;;;;;8.50;5.07;;;1.90;99.90;;;;;;5030876;28;20041;-37
2022/04/20 04:17:58;;;;;;;9.73;5.32;;;1.80;99.90;;;;;;5032471;28;20103;-37
2022/04/20 04:20:27;;;;;;;10.82;5.75;;;2.50;99.90;;;;;;5032038;28;20075;-37
2022/04/20 04:22:54;;;;;;;10.73;5.45;;;1.80;99.90;;;;;;5032036;28;20050;-37
2022/04/20 04:25:20;;;;;;;9.10;5.95;;;1.90;99.90;;;;;;5031943;28;20459;-37
2022/04/20 04:27:47;;;;;;;7.50;5.10;;;2.00;99.90;;;;;;5031408;28;20057;-37
2022/04/20 04:30:13;;;;;;;9.35;5.57;;;2.00;99.90;;;;;;5033678;28;20444;-38
2022/04/20 04:32:39;;;;;;;10.02;5.50;;;1.90;99.90;;;;;;5052118;28;20079;-37
2022/04/20 04:35:06;;;;;;;8.40;5.40;;;2.00;99.90;;;;;;5052042;28;20040;-37
2022/04/20 04:37:34;;;;;;;8.57;5.38;;;1.90;99.90;;;;;;5051401;28;20045;-37
2022/04/20 04:40:00;;;;;;;12.25;5.63;;;2.10;99.90;;;;;;5051869;28;20055;-37
2022/04/20 04:42:26;;;;;;;8.88;5.47;;;1.90;99.90;;;;;;5037743;28;20049;-37
2022/04/20 04:44:52;;;;;;;8.27;5.03;;;2.10;99.90;;;;;;5031651;28;20391;-37
2022/04/20 04:50:03;;;;;;;14.27;6.70;;;2.10;99.90;;;;;;5032000;28;20073;-37
2022/04/20 04:52:29;;;;;;;8.48;5.60;;;2.10;99.90;;;;;;5031493;28;20114;-37
2022/04/20 04:54:55;;;;;;;9.63;6.25;;;2.10;99.90;;;;;;5031805;28;20419;-37
2022/04/20 04:57:20;;;;;;;9.65;5.80;;;2.70;99.90;;;;;;5031423;28;20127;-37
2022/04/20 04:59:46;;;;;;;10.75;5.95;;;2.50;99.90;;;;;;5031238;28;20069;-37
2022/04/20 05:02:12;;;;;;;8.73;5.30;;;2.60;99.90;;;;;;5031300;28;20119;-37
2022/04/20 05:04:42;;;;;;;8.07;5.35;;;2.70;99.90;;;;;;5031258;28;20041;-37
2022/04/20 05:07:09;;;;;;;11.80;5.15;;;2.80;99.90;;;;;;5031140;28;20045;-37
2022/04/20 05:09:34;;;;;;;11.38;6.78;;;3.00;99.90;;;;;;5030932;28;20049;-37
2022/04/20 05:12:01;;;;;;;9.02;6.00;;;3.10;99.90;;;;;;5031204;28;20125;-37
2022/04/20 05:14:27;;;;;;;11.00;5.00;;;4.20;99.90;;;;;;5031719;28;20045;-37
2022/04/20 05:16:55;;;;;;;8.18;5.35;;;5.40;99.90;;;;;;5030978;28;20048;-37
2022/04/20 05:19:21;;;;;;;6.95;5.15;;;6.50;99.90;;;;;;5031081;28;20499;-37
2022/04/20 05:21:46;;;;;;;7.10;4.47;;;7.70;99.90;;;;;;5030835;28;20094;-38
2022/04/20 05:24:12;;;;;;;10.05;4.85;;;9.30;99.90;;;;;;5030856;28;20072;-37
2022/04/20 05:26:38;;;;;;;7.47;3.40;;;9.40;99.90;;;;;;5030038;28;20057;-38
2022/04/20 05:29:04;;;;;;;6.25;3.42;;;9.40;99.90;;;;;;5030921;28;20053;-38
2022/04/20 05:31:30;;;;;;;7.55;3.90;;;10.50;99.90;;;;;;5042857;28;20044;-38
2022/04/20 05:33:55;;;;;;;5.32;2.60;;;11.40;99.90;;;;;;5050098;28;20553;-38
2022/04/20 05:36:21;;;;;;;6.80;3.17;;;12.30;99.90;;;;;;5050086;28;20048;-38
2022/04/20 05:41:40;;;;;;;4.60;2.78;;;13.30;94.70;;;;;;5047274;28;20510;-39
2022/04/20 05:44:10;;;;;;;5.22;3.05;;;14.00;91.80;;;;;;5030178;28;20048;-38
2022/04/20 05:46:36;;;;;;;4.80;2.53;;;14.50;87.90;;;;;;5029852;28;20170;-39
2022/04/20 05:49:02;;;;;;;5.45;2.80;;;15.10;85.30;;;;;;5030339;28;20081;-39
2022/04/20 05:51:28;;;;;;;4.85;2.40;;;15.50;81.60;;;;;;5030071;28;20049;-40
2022/04/20 05:53:54;;;;;;;3.88;2.45;;;15.80;78.30;;;;;;5029672;28;20045;-38
2022/04/20 05:56:19;;;;;;;7.28;2.63;;;16.40;77.60;;;;;;5030074;28;20080;-39
2022/04/20 05:58:47;;;;;;;5.90;2.15;;;16.50;74.30;;;;;;5028447;28;20050;-39
2022/04/20 06:01:14;;;;;;;3.38;2.15;;;16.90;72.20;;;;;;5029966;28;20057;-39
2022/04/20 06:03:40;;;;;;;5.45;2.17;;;16.90;70.70;;;;;;5029724;28;20136;-39
2022/04/20 06:06:06;;;;;;;4.50;2.38;;;17.10;69.40;;;;;;5030049;28;20045;-39
2022/04/20 06:08:32;;;;;;;4.15;2.38;;;17.40;78.00;;;;;;5033476;28;20130;-39
2022/04/20 06:10:58;;;;;;;4.93;2.22;;;17.90;67.40;;;;;;5047986;28;20048;-40
2022/04/20 06:13:24;;;;;;;5.88;2.95;;;17.60;66.70;;;;;;5048843;28;20041;-39
2022/04/20 06:15:51;;;;;;;3.97;2.08;;;18.10;65.90;;;;;;5048536;28;20041;-40
2022/04/20 06:18:17;;;;;;;3.45;2.15;;;18.60;65.10;;;;;;5048765;28;20033;-39
2022/04/20 06:20:42;;;;;;;3.90;2.67;;;18.90;62.50;;;;;;5048324;28;20495;-39
2022/04/20 06:23:08;;;;;;;4.35;1.92;;;19.40;77.20;;;;;;5048894;28;20041;-39
2022/04/20 06:25:34;;;;;;;6.63;3.17;;;19.10;62.80;;;;;;5048806;28;20048;-39
2022/04/20 06:28:01;;;;;;;3.60;2.20;;;19.50;60.00;;;;;;5047927;28;20057;-41
2022/04/20 06:30:26;;;;;;;4.60;2.33;;;19.50;58.60;;;;;;5048984;28;20131;-40
2022/04/20 06:32:52;;;;;;;4.38;2.30;;;19.60;57.90;;;;;;5048431;28;20147;-40
2022/04/20 06:35:18;;;;;;;4.03;2.20;;;19.80;57.50;;;;;;5048376;28;20489;-39
2022/04/20 06:37:43;;;;;;;3.92;2.40;;;20.00;57.40;;;;;;5047286;28;20102;-39
2022/04/20 06:40:09;;;;;;;4.93;2.33;;;20.10;56.10;;;;;;5048930;28;20033;-40
2022/04/20 06:42:35;;;;;;;9.30;2.90;;;20.10;55.90;;;;;;5060976;28;20475;-39
2022/04/20 06:45:01;;;;;;;4.90;2.60;;;20.10;55.60;;;;;;5048309;28;20083;-40
2022/04/20 06:47:29;;;;;;;5.82;2.42;;;20.10;55.20;;;;;;5048131;28;20116;-40
2022/04/20 06:49:55;;;;;;;5.22;2.55;;;20.30;55.10;;;;;;5047138;28;20052;-40
2022/04/20 07:00:34;;;;;;;5.70;2.58;;;21.20;53.50;;;;;;5047673;28;20211;-40
2022/04/20 07:03:02;;;;;;;3.38;1.95;;;21.80;52.50;;;;;;5048548;28;20146;-39
2022/04/20 07:05:27;;;;;;;5.13;2.72;;;21.80;51.50;;;;;;5046427;28;20029;-40
2022/04/20 07:07:53;;;;;;;5.30;2.53;;;21.50;51.00;;;;;;5047042;28;20063;-39
2022/04/20 07:10:19;;;;;;;7.93;2.35;;;20.90;50.80;;;;;;5048328;28;20044;-40
2022/04/20 07:12:45;;;;;;;5.05;2.80;;;20.90;51.30;;;;;;5047511;28;20041;-40
2022/04/20 07:15:11;;;;;;;6.00;2.78;;;20.40;51.10;;;;;;5048263;28;20045;-40
2022/04/20 07:17:37;;;;;;;6.00;2.30;;;20.00;52.20;;;;;;5045487;28;20036;-39
2022/04/20 07:20:04;;;;;;;4.28;2.05;;;19.00;53.60;;;;;;5047621;28;20037;-40
2022/04/20 07:22:30;;;;;;;4.10;1.60;;;18.70;54.70;;;;;;5047303;28;20048;-40
2022/04/20 07:24:55;;;;;;;4.05;1.90;;;18.60;66.20;;;;;;5048007;28;20041;-39
2022/04/20 07:27:21;;;;;;;6.28;3.15;;;18.00;64.00;;;;;;5047896;28;20061;-39
2022/04/20 07:29:47;;;;;;;5.90;2.65;;;17.70;64.20;;;;;;5048464;28;20056;-39
2022/04/20 07:32:12;;;;;;;3.70;1.60;;;17.40;63.90;;;;;;5048298;28;20383;-39
2022/04/20 07:34:38;;;;;;;3.50;1.80;;;16.90;63.70;;;;;;5047610;28;20079;-39
2022/04/20 07:37:04;;;;;;;3.25;1.80;;;16.10;70.10;;;;;;5047516;28;20625;-39
2022/04/20 07:39:29;;;;;;;3.97;2.05;;;15.40;71.70;;;;;;5043615;28;20033;-43
2022/04/20 07:41:55;;;;;;;6.13;1.80;;;14.90;72.80;;;;;;5034270;28;20071;-38
2022/04/20 07:44:21;;;;;;;5.38;1.70;;;14.20;57.20;;;;;;5037992;28;20041;-38
2022/04/20 07:46:47;;;;;;;2.88;1.67;;;13.80;58.20;;;;;;5042762;28;20075;-39
2022/04/20 07:52:03;;;;;;;3.70;2.10;;;13.50;59.70;;;;;;5047035;28;20523;-40
2022/04/20 07:54:28;;;;;;;2.90;1.45;;;13.80;60.00;;;;;;5048258;28;20056;-40
2022/04/20 07:56:54;;;;;;;3.08;1.52;;;14.50;59.80;;;;;;5047655;28;20444;-39
2022/04/20 07:59:20;;;;;;;2.65;1.60;;;15.20;58.50;;;;;;5048542;28;20399;-40
2022/04/20 08:01:45;;;;;;;4.35;1.48;;;15.50;57.20;;;;;;5049501;28;20040;-40
2022/04/20 08:04:11;;;;;;;2.90;1.50;;;15.60;56.50;;;;;;5048768;28;20052;-39
2022/04/20 08:06:46;;;;;;;3.90;1.30;;;15.90;56.50;;;;;;5047678;28;20036;-40
2022/04/20 08:09:12;;;;;;;2.50;1.00;;;16.80;54.90;;;;;;5049044;28;20085;-39
2022/04/20 08:11:37;;;;;;;3.15;1.45;;;17.80;53.40;;;;;;5047717;28;20060;-38
2022/04/20 08:14:09;;;;;;;5.00;1.33;;;18.80;52.20;;;;;;5048056;28;20049;-39
2022/04/20 08:16:35;;;;;;;2.38;0.93;;;20.00;50.90;;;;;;5049919;28;20037;-39
2022/04/20 08:19:00;;;;;;;10.68;1.88;;;21.00;48.80;;;;;;5047138;28;20391;-39
2022/04/20 08:21:26;;;;;;;2.03;0.70;;;21.80;46.50;;;;;;5047803;28;20029;-39
2022/04/20 08:23:52;;;;;;;2.28;0.90;;;22.00;44.50;;;;;;5047313;28;20075;-39
2022/04/20 08:26:18;;;;;;;3.35;0.90;;;22.50;44.60;;;;;;5047949;28;20107;-38
2022/04/20 08:28:44;;;;;;;1.83;0.60;;;23.00;43.90;;;;;;5046142;28;20064;-40
2022/04/20 08:31:09;;;;;;;1.88;0.60;;;23.40;42.20;;;;;;5047051;28;20049;-39
2022/04/20 08:33:35;;;;;;;2.00;0.70;;;23.70;40.90;;;;;;5047627;28;20583;-36
2022/04/20 08:36:00;;;;;;;1.75;0.60;;;23.50;39.60;;;;;;5051660;28;20455;-36
2022/04/20 08:38:26;;;;;;;6.25;1.25;;;23.70;40.60;;;;;;5051757;28;20098;-36
2022/04/20 08:40:54;;;;;;;1.63;0.60;;;24.00;39.10;;;;;;5051625;28;20063;-36
2022/04/20 08:43:20;;;;;;;4.95;0.52;;;23.90;39.00;;;;;;5045177;28;20041;-36
2022/04/20 08:45:49;;;;;;;2.45;0.90;;;24.40;39.70;;;;;;5031579;28;20037;-36
2022/04/20 08:48:15;;;;;;;1.75;0.45;;;24.70;37.80;;;;;;5031213;28;20403;-38
2022/04/20 08:50:42;;;;;;;3.05;0.50;;;24.70;37.30;;;;;;5046771;28;20095;-37
2022/04/20 08:53:09;;;;;;;2.63;0.88;;;24.40;36.00;;;;;;5031296;28;20048;-36
2022/04/20 08:55:34;;;;;;;1.55;0.50;;;24.20;36.70;;;;;;5031278;28;20121;-36
2022/04/20 08:58:02;;;;;;;3.10;0.60;;;24.40;36.70;;;;;;5030730;28;20069;-36
2022/04/20 09:00:28;;;;;;;4.25;0.57;;;24.30;36.80;;;;;;5030518;28;20124;-38
2022/04/20 09:02:56;;;;;;;2.72;0.50;;;24.30;36.60;;;;;;5030890;28;20128;-36
2022/04/20 09:05:23;;;;;;;4.15;0.80;;;24.50;36.20;;;;;;5031173;28;20041;-35
2022/04/20 09:07:49;;;;;;;3.95;0.90;;;24.50;36.20;;;;;;5030798;28;20107;-36
2022/04/20 09:10:16;;;;;;;3.63;0.68;;;24.50;36.40;;;;;;5030818;28;20045;-36
2022/04/20 09:12:43;;;;;;;6.68;0.80;;;24.90;36.80;;;;;;5031104;28;20041;-36
2022/04/20 09:15:14;;;;;;;5.22;0.90;;;25.40;36.30;;;;;;5030701;28;20048;-36
2022/04/20 09:17:44;;;;;;;1.45;0.60;;;25.60;35.00;;;;;;5029945;28;20119;-36
2022/04/20 09:20:18;;;;;;;1.40;0.55;;;25.50;35.20;;;;;;5030255;28;20774;-36
2022/04/20 09:23:05;;;;;;;1.70;0.80;;;25.60;34.60;;;;;;5030892;28;20112;-36
2022/04/20 09:25:31;;;;;;;3.00;0.65;;;25.70;34.00;;;;;;5030728;28;20144;-36
2022/04/20 09:27:57;;;;;;;2.88;0.75;;;26.10;35.20;;;;;;5030116;28;20060;-36
2022/04/20 09:30:23;;;;;;;2.03;0.60;;;26.80;37.60;;;;;;5031804;28;20469;-36
2022/04/20 09:32:49;;;;;;;2.53;0.63;;;27.50;34.60;;;;;;5050337;28;20110;-36
2022/04/20 09:35:18;;;;;;;3.60;0.70;;;27.70;34.10;;;;;;5049769;28;20052;-36
2022/04/20 09:37:44;;;;;;;6.38;0.70;;;27.60;33.00;;;;;;5050410;28;20447;-36
2022/04/20 09:40:12;;;;;;;2.22;0.95;;;27.20;33.00;;;;;;5050053;28;20388;-36
2022/04/20 09:42:58;;;;;;;3.67;0.60;;;27.10;32.90;;;;;;5050225;28;20047;-36
2022/04/20 09:45:23;;;;;;;3.95;0.65;;;27.00;33.10;;;;;;5030375;28;20045;-36
2022/04/20 09:50:34;;;;;;;2.50;0.60;;;26.00;33.50;;;;;;5030381;28;20049;-36
2022/04/20 09:53:06;;;;;;;1.80;0.93;;;25.70;33.90;;;;;;5030287;28;20049;-37
2022/04/20 09:55:36;;;;;;;1.50;0.50;;;25.70;33.90;;;;;;5029864;28;20134;-36
2022/04/20 09:58:09;;;;;;;3.38;0.45;;;25.40;34.10;;;;;;5030156;28;20073;-36
2022/04/20 10:00:44;;;;;;;1.75;0.73;;;25.20;34.20;;;;;;5029719;28;20419;-36
2022/04/20 10:03:10;;;;;;;2.08;0.60;;;25.30;34.70;;;;;;5029805;28;20169;-36
2022/04/20 10:05:37;;;;;;;3.35;0.60;;;25.40;34.80;;;;;;5029929;28;20470;-36
2022/04/20 10:08:03;;;;;;;2.05;0.65;;;25.40;34.10;;;;;;5030002;28;20071;-36
2022/04/20 10:10:30;;;;;;;3.67;0.77;;;25.20;33.70;;;;;;5029790;28;20102;-36
2022/04/20 10:12:56;;;;;;;2.13;0.70;;;25.00;34.10;;;;;;5028707;28;20085;-36
2022/04/20 10:18:17;;;;;;;1.45;0.57;;;24.70;34.40;;;;;;5029475;28;20111;-35
2022/04/20 10:20:46;;;;;;;4.30;0.60;;;25.10;34.50;;;;;;5029618;28;20460;-35
2022/04/20 10:23:16;;;;;;;6.05;0.73;;;24.80;34.90;;;;;;5028297;28;20453;-35
2022/04/20 10:25:44;;;;;;;4.50;0.60;;;25.30;35.00;;;;;;5030062;28;20045;-35
2022/04/20 10:28:37;;;;;;;2.50;0.70;;;25.30;34.80;;;;;;5029671;28;20061;-35
2022/04/20 10:31:38;;;;;;;2.53;0.80;;;25.10;33.80;;;;;;5038172;28;20096;-35
2022/04/20 10:34:05;;;;;;;3.08;0.45;;;24.80;39.00;;;;;;5049308;28;20123;-34
2022/04/20 10:36:32;;;;;;;4.63;0.57;;;24.20;33.80;;;;;;5049100;28;20049;-35
2022/04/20 10:39:18;;;;;;;1.65;0.60;;;24.20;34.00;;;;;;5049000;28;20043;-35
2022/04/20 10:42:10;;;;;;;1.83;0.50;;;24.40;33.90;;;;;;5049348;28;20091;-35
2022/04/20 10:45:08;;;;;;;2.30;1.02;;;24.20;33.80;;;;;;5039873;28;20443;-34
2022/04/20 10:47:42;;;;;;;2.28;0.75;;;23.40;34.20;;;;;;5029248;28;20074;-34
2022/04/20 10:50:22;;;;;;;3.72;0.65;;;21.90;35.50;;;;;;5029195;28;20048;-34
2022/04/20 10:52:52;;;;;;;2.15;0.55;;;20.60;37.00;;;;;;5029519;28;20046;-34
2022/04/20 10:55:24;;;;;;;2.88;0.60;;;19.60;37.90;;;;;;5029226;28;20049;-34
2022/04/20 10:57:54;;;;;;;1.83;0.52;;;18.80;40.10;;;;;;5029391;28;20051;-34
2022/04/20 11:00:20;;;;;;;2.13;0.47;;;18.30;41.20;;;;;;5028673;28;20498;-34
2022/04/20 11:02:54;;;;;;;2.10;0.60;;;17.80;40.70;;;;;;5029145;28;20046;-34
2022/04/20 11:05:24;;;;;;;3.58;0.82;;;17.40;41.60;;;;;;5028832;28;20075;-34
2022/04/20 11:08:12;;;;;;;2.08;0.60;;;17.10;41.40;;;;;;5029238;28;20049;-34
2022/04/20 11:10:43;;;;;;;3.13;0.60;;;16.90;41.90;;;;;;5029001;28;20439;-34
2022/04/20 11:19:03;;;;;;;3.53;0.50;;;16.30;42.00;;;;;;5028626;28;20511;-34
2022/04/20 11:21:29;;;;;;;;;;;16.00;43.50;;;;;;5029609;28;20075;-34
2022/04/20 11:24:11;;;;;;;1.50;0.57;;;15.90;43.50;;;;;;5028787;28;19928;-34
2022/04/20 11:26:41;;;;;;;2.33;0.50;;;15.80;43.50;;;;;;5028762;28;20045;-34
2022/04/20 11:29:16;;;;;;;2.35;1.02;;;16.00;43.30;;;;;;5028844;28;20068;-34
2022/04/20 11:31:43;;;;;;;3.70;0.60;;;16.00;42.60;;;;;;5042893;28;20059;-34
2022/04/20 11:34:11;;;;;;;1.45;0.50;;;15.90;42.50;;;;;;5049121;28;20538;-34
2022/04/20 11:36:43;;;;;;;4.22;0.60;;;16.10;43.20;;;;;;5048776;28;20047;-34
2022/04/20 11:39:12;;;;;;;;;;;15.90;43.50;;;;;;5049113;28;20401;-34
2022/04/20 11:41:42;;;;;;;2.58;0.40;;;15.90;44.50;;;;;;5046844;28;19920;-34
2022/04/20 11:44:21;;;;;;;2.30;0.63;;;16.00;44.10;;;;;;5047252;28;20041;-37
2022/04/20 11:46:48;;;;;;;1.83;0.30;;;16.10;43.80;;;;;;5028299;28;20048;-36
2022/04/20 11:49:13;;;;;;;1.58;0.50;;;16.20;43.90;;;;;;5028427;28;20047;-37
2022/04/20 11:51:53;;;;;;;4.13;0.35;;;16.30;43.60;;;;;;5028388;28;20033;-37
2022/04/20 11:54:22;;;;;;;3.00;0.50;;;16.40;44.00;;;;;;5028528;28;20544;-37
2022/04/20 11:56:48;;;;;;;2.33;0.40;;;16.40;42.90;;;;;;5028248;28;20053;-37
2022/04/20 11:59:17;;;;;;;2.85;0.40;;;16.40;42.80;;;;;;5027257;28;20041;-37
2022/04/20 12:01:44;;;;;;;1.88;0.57;;;16.70;43.80;;;;;;5028263;28;20511;-36
2022/04/20 12:04:18;;;;;;;3.17;0.40;;;16.50;43.80;;;;;;5028376;28;20056;-37
2022/04/20 12:06:55;;;;;;;2.20;0.40;;;16.50;42.60;;;;;;5028078;28;20045;-37
2022/04/20 12:09:32;;;;;;;1.05;0.30;;;16.40;42.70;;;;;;5028051;28;20041;-36
2022/04/20 12:12:00;;;;;;;0.80;0.30;;;16.40;42.30;;;;;;5027924;28;20076;-39
2022/04/20 12:14:37;;;;;;;6.85;0.50;;;16.40;43.00;;;;;;5032174;28;20115;-39
2022/04/20 12:17:23;;;;;;;3.50;0.43;;;16.40;42.90;;;;;;5037383;28;21111;-36
2022/04/20 12:19:52;;;;;;;1.25;0.40;;;16.40;43.00;;;;;;5042857;28;20045;-37
2022/04/20 12:22:19;;;;;;;1.45;0.70;;;16.30;42.80;;;;;;5043613;28;20040;-36
2022/04/20 12:24:44;;;;;;;1.85;0.47;;;16.30;44.10;;;;;;5042909;28;20032;-36
2022/04/20 12:27:21;;;;;;;1.70;0.75;;;16.30;43.90;;;;;;5043832;28;20056;-41
2022/04/20 12:29:58;;;;;;;2.08;0.35;;;16.30;43.60;;;;;;5043667;28;20045;-37
2022/04/20 12:32:32;;;;;;;2.42;0.65;;;16.30;44.20;;;;;;5044119;28;20033;-37
2022/04/20 12:35:01;;;;;;;1.77;0.68;;;16.40;44.10;;;;;;5044107;28;20502;-37
2022/04/20 12:37:30;;;;;;;1.15;0.70;;;16.40;44.70;;;;;;5047878;28;20056;-38
2022/04/20 12:40:17;;;;;;;1.35;0.40;;;16.70;45.00;;;;;;5048372;28;20483;-36
2022/04/20 12:43:05;;;;;;;1.40;0.60;;;16.50;45.30;;;;;;5045345;28;20578;-36
2022/04/20 12:45:31;;;;;;;2.17;0.90;;;16.50;45.70;;;;;;5046571;28;20167;-35
2022/04/20 12:48:06;;;;;;;2.95;0.60;;;16.50;45.60;;;;;;5044852;28;20139;-36
2022/04/20 12:50:37;;;;;;;3.42;0.90;;;16.40;45.60;;;;;;5046347;28;20090;-36
2022/04/20 12:53:03;;;;;;;2.53;0.50;;;16.50;46.10;;;;;;5047606;28;20073;-39
2022/04/20 13:04:21;;;;;;;2.55;0.77;;;16.60;45.90;;;;;;5046671;28;20079;-35
2022/04/20 13:06:49;;;;;;;6.68;1.42;;;16.50;46.70;;;;;;5044816;28;20068;-35
2022/04/20 13:09:15;;;;;;;2.08;0.77;;;16.50;47.10;;;;;;5046833;28;20041;-35
2022/04/20 13:11:41;;;;;;;3.47;0.68;;;16.60;47.90;;;;;;5047298;28;20376;-34
2022/04/20 13:14:07;;;;;;;1.63;0.52;;;16.50;46.90;;;;;;5046682;28;20041;-34
2022/04/20 13:16:33;;;;;;;2.00;0.90;;;16.60;47.40;;;;;;5046531;28;20037;-34
2022/04/20 13:18:59;;;;;;;2.17;1.00;;;16.60;47.70;;;;;;5046729;28;20039;-35
2022/04/20 13:21:26;;;;;;;4.93;1.15;;;16.60;47.30;;;;;;5044639;28;20459;-35
2022/04/20 13:23:54;;;;;;;2.20;0.95;;;16.60;48.00;;;;;;5045236;28;20132;-35
2022/04/20 13:29:04;;;;;;;3.40;0.85;;;16.70;49.10;;;;;;5045251;28;20063;-38
2022/04/20 13:31:31;;;;;;;4.03;1.20;;;16.80;48.20;;;;;;5047896;28;20033;-35
2022/04/20 13:34:09;;;;;;;2.67;0.95;;;16.80;47.90;;;;;;5046785;28;20040;-37
2022/04/20 13:36:35;;;;;;;4.50;1.02;;;16.70;48.30;;;;;;5045739;28;20072;-37
2022/04/20 13:39:01;;;;;;;8.48;1.10;;;16.80;48.50;;;;;;5046337;28;20041;-36
2022/04/20 13:41:27;;;;;;;3.78;1.55;;;17.00;48.70;;;;;;5045243;28;20043;-36